Terminal Aerodrome Forecast
Issued by NWS Buffalo, NY

Home | Current Version | Previous Version | Text Only | Print | Product List | Glossary On
Versions: 1 2 3 4 5 6 7 8 9 10 11 12 13 14 15 16 17 18 19 20 21 22 23 24 25 26 27 28 29
000
FTUS41 KBUF 270300 AAA
TAFROC
TAF AMD
KROC 270300Z 2703/2724 23007KT P6SM BKN010 BKN030 OVC050
     FM270600 26006KT P6SM OVC020
     FM271400 32005KT 5SM -SN BR OVC020
     FM271700 02008KT 3SM -SN OVC020=

USA.gov is the U.S. government's official web portal to all federal, state and local government web resources and services.